createdAt,value
2018-01-10T00:00:39.362Z,67.80
2018-01-10T00:02:41.193Z,66.50
2018-01-10T00:05:00.203Z,62.03
2018-01-10T00:09:37.283Z,72.90
2018-01-10T00:14:14.874Z,68.40
2018-01-10T00:16:15.880Z,84.57
2018-01-10T00:20:44.308Z,71.50
2018-01-10T00:22:45.647Z,78.80
2018-01-10T00:24:47.140Z,78.77
2018-01-10T00:26:56.233Z,77.23
2018-01-10T00:28:57.784Z,74.43
2018-01-10T00:33:34.844Z,70.53
2018-01-10T00:38:26.173Z,68.67
2018-01-10T00:45:55.751Z,67.10
2018-01-10T00:50:33.350Z,66.93
2018-01-10T00:52:34.388Z,63.33
2018-01-10T00:54:35.805Z,75.00
2018-01-10T00:56:43.998Z,76.83
2018-01-10T00:58:45.708Z,84.93
2018-01-10T01:00:55.178Z,68.20
2018-01-10T01:02:57.227Z,73.17
2018-01-10T01:07:47.161Z,70.50
2018-01-10T01:09:48.791Z,78.13
2018-01-10T01:12:15.598Z,84.20
2018-01-10T01:14:17.472Z,73.23
2018-01-10T01:16:20.744Z,70.73
2018-01-10T01:18:46.484Z,76.80
2018-01-10T01:23:22.332Z,80.63
2018-01-10T01:27:58.154Z,77.17
2018-01-10T01:30:06.554Z,71.03
2018-01-10T01:32:16.008Z,77.53
2018-01-10T01:36:48.669Z,57.20
2018-01-10T01:38:50.190Z,67.73
2018-01-10T01:41:18.982Z,71.23
2018-01-10T01:43:45.260Z,61.23
2018-01-10T01:45:46.312Z,66.37
2018-01-10T01:52:42.714Z,62.97
2018-01-10T02:04:45.247Z,54.33
2018-01-10T02:11:45.565Z,81.13
2018-01-10T02:13:48.049Z,86.30
2018-01-10T02:15:49.291Z,74.63
2018-01-10T02:18:16.099Z,80.90
2018-01-10T02:20:18.089Z,80.50
2018-01-10T02:27:23.837Z,77.53
2018-01-10T02:29:24.918Z,72.93
2018-01-10T02:33:55.396Z,60.37
2018-01-10T02:38:26.376Z,69.60
2018-01-10T02:42:55.142Z,79.87
2018-01-10T02:47:32.555Z,75.73
2018-01-10T02:52:11.399Z,69.80
2018-01-10T02:56:59.020Z,67.80
2018-01-10T03:01:28.780Z,73.10
2018-01-10T03:03:30.023Z,68.77
2018-01-10T03:10:27.275Z,72.37
2018-01-10T03:12:29.167Z,70.73
2018-01-10T03:14:31.427Z,65.57
2018-01-10T03:23:57.264Z,65.83
2018-01-10T03:25:59.641Z,66.73
2018-01-10T03:28:06.871Z,68.57
2018-01-10T03:30:12.199Z,61.50
2018-01-10T03:32:14.021Z,72.33
2018-01-10T03:39:30.194Z,78.57
2018-01-10T03:46:44.979Z,80.83
2018-01-10T03:53:46.015Z,64.60
2018-01-10T04:00:52.226Z,65.87
2018-01-10T04:05:34.078Z,64.83
2018-01-10T04:07:35.891Z,59.97
2018-01-10T04:09:37.941Z,60.37
2018-01-10T04:11:39.485Z,64.27
2018-01-10T04:23:34.167Z,54.33
2018-01-10T04:28:17.836Z,52.10
2018-01-10T04:30:34.120Z,55.40
2018-01-10T04:35:11.818Z,53.20
2018-01-10T04:37:12.978Z,53.33
2018-01-10T04:39:13.980Z,64.40
2018-01-10T04:41:21.008Z,54.10
2018-01-10T04:43:22.483Z,64.03
2018-01-10T04:45:23.539Z,67.73
2018-01-10T04:47:24.531Z,60.00
2018-01-10T04:56:50.291Z,72.47
2018-01-10T04:58:51.319Z,55.07
2018-01-10T05:00:52.296Z,71.80
2018-01-10T05:05:18.004Z,69.87
2018-01-10T05:09:46.466Z,62.90
2018-01-10T05:12:01.170Z,62.53
2018-01-10T05:16:29.891Z,56.80
2018-01-10T05:21:00.193Z,62.13
2018-01-10T05:23:01.206Z,65.53
2018-01-10T05:25:10.833Z,60.50
2018-01-10T05:27:11.956Z,52.33
2018-01-10T05:32:03.254Z,59.47
2018-01-10T05:36:41.364Z,63.17
2018-01-10T05:38:44.058Z,59.07
2018-01-10T05:40:46.058Z,65.20
2018-01-10T05:42:47.243Z,62.40
2018-01-10T05:47:30.981Z,67.03
2018-01-10T05:49:35.641Z,61.67
2018-01-10T05:51:36.728Z,61.73
2018-01-10T05:53:46.600Z,66.60
2018-01-10T05:58:25.908Z,64.33
2018-01-10T06:00:26.911Z,58.33
2018-01-10T06:02:28.053Z,53.17
2018-01-10T06:04:29.158Z,67.77
2018-01-10T06:06:30.219Z,51.23
2018-01-10T06:11:00.348Z,50.20
2018-01-10T06:13:01.587Z,53.57
2018-01-10T06:15:02.619Z,47.37
2018-01-10T06:17:03.610Z,48.47
2018-01-10T06:19:15.687Z,49.87
2018-01-10T06:21:34.756Z,47.37
2018-01-10T06:23:53.116Z,42.90
2018-01-10T06:25:54.079Z,45.17
2018-01-10T06:27:55.455Z,47.47
2018-01-10T06:30:03.558Z,48.20
2018-01-10T06:32:05.450Z,53.53
2018-01-10T06:34:24.087Z,49.53
2018-01-10T06:36:26.584Z,47.23
2018-01-10T06:41:17.965Z,43.67
2018-01-10T06:43:32.239Z,42.77
2018-01-10T06:45:51.176Z,49.60
2018-01-10T06:50:19.687Z,47.10
2018-01-10T06:52:20.770Z,52.00
2018-01-10T06:54:54.331Z,43.37
2018-01-10T06:56:55.435Z,38.73
2018-01-10T06:59:03.266Z,65.03
2018-01-10T07:06:01.521Z,50.60
2018-01-10T07:12:58.019Z,60.60
2018-01-10T07:14:58.987Z,54.93
2018-01-10T07:16:59.991Z,61.43
2018-01-10T07:19:01.002Z,48.63
2018-01-10T07:21:02.349Z,60.47
2018-01-10T07:25:26.468Z,52.10
2018-01-10T07:30:26.407Z,53.60
2018-01-10T07:35:20.411Z,60.37
2018-01-10T07:37:39.083Z,53.03
2018-01-10T07:39:40.128Z,49.63
2018-01-10T07:41:41.171Z,51.50
2018-01-10T07:44:07.614Z,53.70
2018-01-10T07:46:09.350Z,52.50
2018-01-10T07:53:16.646Z,53.93
2018-01-10T07:55:17.606Z,59.73
2018-01-10T07:57:18.655Z,57.70
2018-01-10T07:59:27.546Z,67.50
2018-01-10T08:01:30.774Z,61.70
2018-01-10T08:03:31.874Z,53.83
2018-01-10T08:05:32.857Z,57.53
2018-01-10T08:07:34.559Z,56.50
2018-01-10T08:09:35.627Z,55.13
2018-01-10T08:11:40.763Z,58.20
2018-01-10T08:13:43.385Z,55.33
2018-01-10T08:15:49.214Z,51.43
2018-01-10T08:17:51.242Z,58.20
2018-01-10T08:22:36.530Z,52.17
2018-01-10T08:24:37.521Z,51.90
2018-01-10T08:26:38.468Z,54.20
2018-01-10T08:28:39.444Z,64.17
2018-01-10T08:30:40.483Z,54.70
2018-01-10T08:32:41.846Z,47.70
2018-01-10T08:34:43.004Z,55.73
2018-01-10T08:36:44.734Z,59.20
2018-01-10T08:38:45.918Z,59.40
2018-01-10T08:40:47.046Z,56.50
2018-01-10T08:42:48.074Z,57.93
2018-01-10T08:44:49.047Z,55.00
2018-01-10T08:46:50.126Z,58.27
2018-01-10T08:48:51.091Z,54.77
2018-01-10T08:50:52.796Z,66.93
2018-01-10T08:52:56.437Z,51.03
2018-01-10T08:54:57.428Z,51.60
2018-01-10T08:56:58.378Z,51.50
2018-01-10T08:58:59.399Z,53.53
2018-01-10T09:01:02.054Z,57.57
2018-01-10T09:03:03.089Z,56.97
2018-01-10T09:05:04.145Z,56.40
2018-01-10T09:07:05.132Z,54.63
2018-01-10T09:09:06.095Z,58.73
2018-01-10T09:11:14.350Z,50.80
2018-01-10T09:13:15.446Z,51.83
2018-01-10T09:15:16.525Z,61.20
2018-01-10T09:17:17.541Z,52.13
2018-01-10T09:19:20.176Z,52.27
2018-01-10T09:21:21.277Z,48.63
2018-01-10T09:23:22.314Z,53.27
2018-01-10T09:25:24.750Z,53.57
2018-01-10T09:27:25.870Z,54.90
2018-01-10T09:29:28.352Z,50.47
2018-01-10T09:31:29.500Z,57.57
2018-01-10T09:33:30.686Z,53.80
2018-01-10T09:35:47.249Z,52.30
2018-01-10T09:37:48.339Z,50.60
2018-01-10T09:39:49.396Z,51.60
2018-01-10T09:41:51.112Z,101.83
2018-01-10T09:43:52.212Z,65.20
2018-01-10T09:45:53.960Z,51.30
2018-01-10T09:47:55.076Z,44.53
2018-01-10T09:49:56.048Z,49.77
2018-01-10T09:51:57.083Z,51.63
2018-01-10T09:53:58.043Z,47.23
2018-01-10T09:55:59.646Z,42.50
2018-01-10T09:58:00.671Z,35.53
2018-01-10T10:00:01.693Z,40.60
2018-01-10T10:02:03.500Z,41.73
2018-01-10T10:04:04.548Z,35.93
2018-01-10T10:06:05.582Z,40.80
2018-01-10T10:08:06.859Z,42.63
2018-01-10T10:10:08.396Z,38.53
2018-01-10T10:12:09.428Z,37.07
2018-01-10T10:14:10.755Z,40.17
2018-01-10T10:16:21.975Z,42.47
2018-01-10T10:20:51.659Z,39.53
2018-01-10T10:23:03.104Z,40.10
2018-01-10T10:25:21.148Z,36.10
2018-01-10T10:29:51.764Z,34.33
2018-01-10T10:31:52.758Z,34.60
2018-01-10T10:33:53.780Z,35.50
2018-01-10T10:35:55.475Z,33.17
2018-01-10T10:37:56.479Z,40.77
2018-01-10T10:39:57.522Z,33.40
2018-01-10T10:41:58.543Z,35.30
2018-01-10T10:43:59.505Z,33.47
2018-01-10T10:46:00.464Z,37.77
2018-01-10T10:48:01.476Z,30.23
2018-01-10T10:52:43.498Z,31.20
2018-01-10T10:54:44.487Z,33.70
2018-01-10T10:56:45.487Z,30.57
2018-01-10T11:01:12.370Z,36.63
2018-01-10T11:03:26.424Z,31.97
2018-01-10T11:07:53.808Z,28.13
2018-01-10T11:09:54.852Z,30.97
2018-01-10T11:11:55.829Z,31.27
2018-01-10T11:13:56.799Z,31.60
2018-01-10T11:15:57.819Z,30.63
2018-01-10T11:23:09.881Z,35.33
2018-01-10T11:25:19.425Z,33.63
2018-01-10T11:27:20.669Z,37.07
2018-01-10T11:29:21.685Z,32.40
2018-01-10T11:31:23.475Z,38.53
2018-01-10T11:33:27.402Z,34.73
2018-01-10T11:35:28.468Z,34.67
2018-01-10T11:37:29.419Z,32.43
2018-01-10T11:41:49.258Z,32.67
2018-01-10T11:43:50.229Z,28.17
2018-01-10T11:45:51.177Z,30.90
2018-01-10T11:47:52.128Z,33.50
2018-01-10T11:49:53.684Z,30.53
2018-01-10T11:51:54.663Z,27.87
2018-01-10T11:53:55.647Z,31.70
2018-01-10T11:55:56.933Z,32.03
2018-01-10T11:57:58.174Z,26.43
2018-01-10T11:59:59.196Z,29.30
2018-01-10T12:02:00.181Z,32.70
2018-01-10T12:04:01.506Z,30.50
2018-01-10T12:06:02.506Z,32.23
2018-01-10T12:08:04.946Z,26.90
2018-01-10T12:10:06.002Z,25.93
2018-01-10T12:12:08.635Z,25.30
2018-01-10T12:14:09.708Z,24.17
2018-01-10T12:16:10.667Z,27.50
2018-01-10T12:18:12.448Z,28.10
2018-01-10T12:20:13.511Z,27.17
2018-01-10T12:22:14.502Z,30.90
2018-01-10T12:24:15.503Z,28.77
2018-01-10T12:26:17.240Z,40.27
2018-01-10T12:28:18.184Z,28.17
2018-01-10T12:30:19.196Z,30.13
2018-01-10T12:32:20.949Z,25.80
2018-01-10T12:34:22.510Z,25.43
2018-01-10T12:36:23.806Z,29.97
2018-01-10T12:38:24.841Z,38.87
2018-01-10T12:40:25.791Z,62.50
2018-01-10T12:42:26.784Z,53.63
2018-01-10T12:44:27.731Z,51.17
2018-01-10T12:46:28.717Z,27.07
2018-01-10T12:48:29.687Z,25.50
2018-01-10T12:50:30.649Z,24.80
2018-01-10T12:52:31.608Z,28.77
2018-01-10T12:54:32.559Z,24.80
2018-01-10T12:56:33.546Z,23.97
2018-01-10T12:58:35.244Z,27.60
2018-01-10T13:00:36.259Z,24.47
2018-01-10T13:02:38.054Z,28.93
2018-01-10T13:04:39.125Z,23.33
2018-01-10T13:06:40.160Z,22.60
2018-01-10T13:08:41.211Z,24.53
2018-01-10T13:10:42.184Z,26.80
2018-01-10T13:12:43.211Z,24.53
2018-01-10T13:14:46.065Z,26.03
2018-01-10T13:16:47.117Z,23.10
2018-01-10T13:18:54.416Z,23.10
2018-01-10T13:23:02.078Z,25.33
2018-01-10T13:25:03.777Z,33.63
2018-01-10T13:27:04.732Z,25.83
2018-01-10T13:29:06.540Z,29.87
2018-01-10T13:31:07.535Z,28.47
2018-01-10T13:33:08.492Z,24.63
2018-01-10T13:35:10.208Z,26.63
2018-01-10T13:37:11.256Z,23.63
2018-01-10T13:39:12.263Z,22.30
2018-01-10T13:41:13.279Z,27.87
2018-01-10T13:43:14.260Z,24.50
2018-01-10T13:45:22.916Z,24.17
2018-01-10T13:47:24.196Z,30.50
2018-01-10T13:49:26.627Z,24.90
2018-01-10T13:51:30.607Z,24.67
2018-01-10T13:53:33.258Z,24.20
2018-01-10T13:55:35.099Z,24.97
2018-01-10T13:57:36.086Z,23.07
2018-01-10T13:59:39.945Z,29.00
2018-01-10T14:01:40.983Z,25.47
2018-01-10T14:03:43.617Z,23.77
2018-01-10T14:05:44.745Z,25.93
2018-01-10T14:07:45.730Z,28.90
2018-01-10T14:09:52.009Z,23.43
2018-01-10T14:11:53.843Z,23.17
2018-01-10T14:13:54.814Z,23.87
2018-01-10T14:15:55.805Z,25.83
2018-01-10T14:18:01.094Z,21.50
2018-01-10T14:20:02.263Z,22.80
2018-01-10T14:22:04.361Z,21.93
2018-01-10T14:24:06.915Z,21.87
2018-01-10T14:26:09.066Z,22.80
2018-01-10T14:28:10.130Z,21.43
2018-01-10T14:30:11.145Z,25.10
2018-01-10T14:32:12.851Z,24.20
2018-01-10T14:34:16.061Z,31.43
2018-01-10T14:36:17.117Z,23.80
2018-01-10T14:38:20.304Z,22.97
2018-01-10T14:40:21.381Z,26.03
2018-01-10T14:42:22.428Z,22.00
2018-01-10T14:44:23.406Z,26.80
2018-01-10T14:46:24.381Z,33.30
2018-01-10T14:48:26.184Z,40.63
2018-01-10T14:50:27.267Z,25.90
2018-01-10T14:52:29.143Z,27.93
2018-01-10T14:54:30.867Z,26.60
2018-01-10T14:56:32.480Z,28.17
2018-01-10T14:58:33.586Z,24.87
2018-01-10T15:00:34.547Z,26.50
2018-01-10T15:02:36.138Z,23.10
2018-01-10T15:04:37.183Z,25.17
2018-01-10T15:06:38.871Z,21.53
2018-01-10T15:08:45.308Z,22.17
2018-01-10T15:10:46.397Z,24.10
2018-01-10T15:12:47.692Z,22.43
2018-01-10T15:14:48.708Z,23.43
2018-01-10T15:16:49.700Z,22.53
2018-01-10T15:18:50.670Z,24.87
2018-01-10T15:20:53.882Z,29.63
2018-01-10T15:22:54.849Z,25.80
2018-01-10T15:24:57.671Z,30.23
2018-01-10T15:26:58.725Z,26.83
2018-01-10T15:28:59.656Z,34.03
2018-01-10T15:31:00.663Z,28.20
2018-01-10T15:33:02.377Z,31.67
2018-01-10T15:35:03.722Z,27.50
2018-01-10T15:37:05.210Z,28.83
2018-01-10T15:39:06.309Z,27.67
2018-01-10T15:41:07.329Z,25.77
2018-01-10T15:43:08.316Z,24.53
2018-01-10T15:45:09.317Z,23.07
2018-01-10T15:47:10.355Z,53.80
2018-01-10T15:49:11.336Z,32.67
2018-01-10T15:51:12.678Z,24.33
2018-01-10T15:53:13.688Z,23.90
2018-01-10T15:55:14.639Z,25.03
2018-01-10T15:57:15.607Z,30.17
2018-01-10T15:59:16.692Z,29.27
2018-01-10T16:01:17.644Z,35.50
2018-01-10T16:03:19.184Z,36.73
2018-01-10T16:05:20.259Z,37.37
2018-01-10T16:07:21.568Z,21.80
2018-01-10T16:09:22.611Z,23.70
2018-01-10T16:11:23.818Z,24.70
2018-01-10T16:13:24.830Z,27.87
2018-01-10T16:15:26.575Z,22.57
2018-01-10T16:17:27.774Z,24.77
2018-01-10T16:19:28.774Z,24.10
2018-01-10T16:21:29.876Z,22.90
2018-01-10T16:23:31.091Z,23.97
2018-01-10T16:25:32.203Z,27.80
2018-01-10T16:27:33.396Z,24.20
2018-01-10T16:29:34.490Z,24.90
2018-01-10T16:31:35.450Z,26.47
2018-01-10T16:33:36.543Z,21.10
2018-01-10T16:35:37.544Z,20.53
2018-01-10T16:37:38.555Z,20.80
2018-01-10T16:39:39.504Z,21.80
2018-01-10T16:41:40.833Z,29.10
2018-01-10T16:43:41.789Z,21.63
2018-01-10T16:45:42.752Z,26.90
2018-01-10T16:47:43.960Z,22.00
2018-01-10T16:49:44.907Z,25.00
2018-01-10T16:51:46.599Z,22.77
2018-01-10T16:53:47.685Z,20.33
2018-01-10T16:55:48.666Z,20.70
2018-01-10T16:57:49.843Z,25.87
2018-01-10T16:59:50.795Z,27.90
2018-01-10T17:01:51.873Z,21.60
2018-01-10T17:03:52.935Z,25.17
2018-01-10T17:05:54.083Z,24.80
2018-01-10T17:07:58.901Z,20.03
2018-01-10T17:09:59.915Z,24.33
2018-01-10T17:12:01.037Z,26.03
2018-01-10T17:14:02.232Z,33.27
2018-01-10T17:18:31.473Z,26.47
2018-01-10T17:23:00.764Z,27.13
2018-01-10T17:25:11.978Z,28.67
2018-01-10T17:27:13.238Z,30.37
2018-01-10T17:31:42.236Z,36.37
2018-01-10T17:33:43.232Z,49.37
2018-01-10T17:35:44.220Z,34.70
2018-01-10T17:37:45.196Z,30.77
2018-01-10T17:39:46.899Z,32.97
2018-01-10T17:41:47.887Z,26.00
2018-01-10T17:43:48.843Z,38.03
2018-01-10T17:45:49.812Z,34.40
2018-01-10T17:47:50.778Z,37.03
2018-01-10T17:49:52.890Z,37.50
2018-01-10T17:51:53.868Z,37.00
2018-01-10T17:53:54.835Z,37.67
2018-01-10T17:55:55.770Z,38.80
2018-01-10T17:57:56.706Z,39.30
2018-01-10T17:59:58.383Z,44.77
2018-01-10T18:01:59.351Z,46.80
2018-01-10T18:04:00.365Z,47.60
2018-01-10T18:06:01.540Z,50.90
2018-01-10T18:08:04.967Z,56.43
2018-01-10T18:10:08.094Z,53.00
2018-01-10T18:19:37.024Z,74.63
2018-01-10T18:21:38.049Z,74.90
2018-01-10T18:23:39.076Z,70.50
2018-01-10T18:25:40.083Z,61.33
2018-01-10T18:27:41.032Z,54.07
2018-01-10T18:29:42.056Z,46.27
2018-01-10T18:31:43.071Z,46.07
2018-01-10T18:33:44.084Z,35.50
2018-01-10T18:35:45.034Z,41.50
2018-01-10T18:37:47.042Z,41.60
2018-01-10T18:39:48.317Z,39.13
2018-01-10T18:41:49.307Z,38.53
2018-01-10T18:43:50.936Z,33.43
2018-01-10T18:46:06.801Z,37.90
2018-01-10T18:48:07.998Z,30.83
2018-01-10T18:50:09.072Z,32.20
2018-01-10T18:52:10.082Z,26.30
2018-01-10T18:54:11.076Z,30.07
2018-01-10T18:56:12.049Z,29.13
2018-01-10T18:58:16.701Z,37.23
2018-01-10T19:00:18.801Z,31.47
2018-01-10T19:02:20.437Z,31.70
2018-01-10T19:04:21.662Z,30.33
2018-01-10T19:06:26.370Z,24.20
2018-01-10T19:08:27.495Z,34.40
2018-01-10T19:10:31.321Z,32.80
2018-01-10T19:14:41.116Z,35.53
2018-01-10T19:16:42.161Z,23.63
2018-01-10T19:18:43.612Z,27.80
2018-01-10T19:20:44.750Z,30.20
2018-01-10T19:22:46.140Z,28.97
2018-01-10T19:24:47.204Z,37.03
2018-01-10T19:26:49.255Z,34.43
2018-01-10T19:29:11.761Z,38.97
2018-01-10T19:31:17.391Z,32.30
2018-01-10T19:33:18.457Z,33.00
2018-01-10T19:35:19.803Z,30.53
2018-01-10T19:37:20.894Z,30.87
2018-01-10T19:39:22.195Z,34.80
2018-01-10T19:41:24.165Z,32.60
2018-01-10T19:43:25.248Z,38.47
2018-01-10T19:45:27.104Z,31.93
2018-01-10T19:47:28.171Z,33.00
2018-01-10T19:49:29.388Z,31.80
2018-01-10T19:51:30.788Z,31.00
2018-01-10T19:53:31.847Z,28.20
2018-01-10T19:55:32.932Z,25.60
2018-01-10T19:57:34.209Z,28.10
2018-01-10T19:59:35.321Z,20.30
2018-01-10T20:01:36.428Z,25.97
2018-01-10T20:03:37.612Z,24.77
2018-01-10T20:05:39.358Z,20.43
2018-01-10T20:10:07.952Z,18.80
2018-01-10T20:12:09.384Z,29.57
2018-01-10T20:16:39.634Z,19.63
2018-01-10T20:18:40.802Z,22.77
2018-01-10T20:20:43.826Z,26.43
2018-01-10T20:22:51.368Z,19.00
2018-01-10T20:24:52.535Z,21.57
2018-01-10T20:27:03.681Z,24.30
2018-01-10T20:29:30.832Z,21.23
2018-01-10T20:31:34.009Z,27.97
2018-01-10T20:33:36.412Z,45.83
2018-01-10T20:38:30.723Z,31.83
2018-01-10T20:42:59.592Z,27.97
2018-01-10T20:45:20.481Z,23.33
2018-01-10T20:47:21.616Z,26.73
2018-01-10T20:49:22.818Z,29.87
2018-01-10T20:51:45.227Z,32.43
2018-01-10T20:53:46.434Z,25.67
2018-01-10T20:55:47.647Z,27.43
2018-01-10T20:58:26.681Z,33.37
2018-01-10T21:00:28.307Z,29.20
2018-01-10T21:02:39.405Z,35.33
2018-01-10T21:07:17.130Z,35.93
2018-01-10T21:09:18.172Z,32.53
2018-01-10T21:11:19.411Z,33.50
2018-01-10T21:13:20.539Z,28.47
2018-01-10T21:15:21.844Z,29.57
2018-01-10T21:17:23.857Z,28.13
2018-01-10T21:19:24.891Z,27.67
2018-01-10T21:21:25.911Z,38.50
2018-01-10T21:23:26.947Z,40.80
2018-01-10T21:25:28.080Z,51.60
2018-01-10T21:27:30.135Z,57.70
2018-01-10T21:29:56.932Z,38.93
2018-01-10T21:31:57.944Z,47.17
2018-01-10T21:33:58.901Z,41.20
2018-01-10T21:35:59.895Z,36.40
2018-01-10T21:38:00.874Z,35.00
2018-01-10T21:40:04.075Z,47.23
2018-01-10T21:42:06.270Z,31.03
2018-01-10T21:44:07.240Z,37.50
2018-01-10T21:46:08.215Z,34.87
2018-01-10T21:50:46.039Z,35.30
2018-01-10T21:52:47.039Z,33.70
2018-01-10T21:54:49.276Z,35.23
2018-01-10T21:56:50.707Z,35.67
2018-01-10T21:58:58.349Z,35.73
2018-01-10T22:01:00.376Z,45.03
2018-01-10T22:03:01.404Z,63.73
2018-01-10T22:05:02.384Z,59.30
2018-01-10T22:07:03.401Z,49.20
2018-01-10T22:09:04.416Z,37.00
2018-01-10T22:11:05.440Z,37.37
2018-01-10T22:13:06.449Z,35.63
2018-01-10T22:15:07.466Z,36.47
2018-01-10T22:17:08.467Z,33.67
2018-01-10T22:19:09.943Z,41.20
2018-01-10T22:21:28.748Z,32.57
2018-01-10T22:23:29.727Z,33.17
2018-01-10T22:27:50.956Z,34.67
2018-01-10T22:29:51.960Z,32.53
2018-01-10T22:31:58.672Z,31.17
2018-01-10T22:36:31.134Z,32.83
2018-01-10T22:38:32.137Z,35.60
2018-01-10T22:40:33.137Z,36.40
2018-01-10T22:42:34.860Z,33.20
2018-01-10T22:44:35.815Z,29.30
2018-01-10T22:46:36.767Z,35.37
2018-01-10T22:48:38.512Z,36.63
2018-01-10T22:50:39.556Z,37.37
2018-01-10T22:52:40.503Z,34.73
2018-01-10T22:54:41.445Z,32.73
2018-01-10T22:56:42.484Z,30.10
2018-01-10T22:58:43.518Z,42.30
2018-01-10T23:00:44.543Z,33.40
2018-01-10T23:02:46.333Z,42.40
2018-01-10T23:04:47.418Z,37.43
2018-01-10T23:06:48.426Z,35.07
2018-01-10T23:08:50.452Z,40.53
2018-01-10T23:10:51.655Z,35.03
2018-01-10T23:12:52.689Z,41.60
2018-01-10T23:14:53.735Z,29.40
2018-01-10T23:16:54.699Z,30.90
2018-01-10T23:18:55.738Z,35.87
2018-01-10T23:20:56.789Z,38.33
2018-01-10T23:22:57.809Z,56.90
2018-01-10T23:25:00.412Z,32.50
2018-01-10T23:27:03.556Z,44.27
2018-01-10T23:29:04.573Z,51.23
2018-01-10T23:31:07.682Z,50.70
2018-01-10T23:33:08.716Z,41.63
2018-01-10T23:35:09.698Z,32.97
2018-01-10T23:37:26.636Z,36.90
2018-01-10T23:39:28.453Z,40.27
2018-01-10T23:41:29.640Z,42.83
2018-01-10T23:43:30.713Z,36.10
2018-01-10T23:45:31.721Z,37.83
2018-01-10T23:47:32.673Z,36.90
2018-01-10T23:49:35.468Z,36.77
2018-01-10T23:51:36.520Z,32.20
2018-01-10T23:53:37.540Z,40.13
2018-01-10T23:55:38.504Z,41.90
2018-01-10T23:57:39.467Z,33.40
